Time;durP1;ratioP1;P1;durP2;ratioP2;P2;SDS_P1;SDS_P2;PMS_P1;PMS_P2;Temp;Humidity;BMP_temperature;BMP_pressure;BME280_temperature;BME280_humidity;BME280_pressure;Samples;Min_cycle;Max_cycle;Signal;HPM_P1;HPM_P2
2022/05/22 00:03:42;;;;;;;4.93;3.20;;;25.00;66.10;;;;;;10947337;32;20335;-74
2022/05/22 00:09:44;;;;;;;3.05;2.47;;;25.00;65.90;;;;;;10944388;32;20182;-75
2022/05/22 00:22:17;;;;;;;6.57;3.28;;;24.90;66.80;;;;;;10947481;32;20049;-75
2022/05/22 00:28:20;;;;;;;4.95;3.28;;;24.80;67.10;;;;;;10946532;32;20324;-75
2022/05/22 00:34:22;;;;;;;5.32;3.53;;;24.80;67.00;;;;;;10946393;32;20023;-75
2022/05/22 00:40:24;;;;;;;7.37;3.85;;;24.70;67.10;;;;;;10946016;32;20053;-75
2022/05/22 00:46:27;;;;;;;5.97;3.10;;;24.70;67.50;;;;;;10945816;32;20031;-75
2022/05/22 00:52:39;;;;;;;5.25;4.03;;;24.70;67.30;;;;;;10945163;32;20050;-75
2022/05/22 00:58:42;;;;;;;4.87;3.55;;;24.50;67.40;;;;;;10945585;32;20023;-74
2022/05/22 01:04:46;;;;;;;10.45;3.30;;;24.30;67.60;;;;;;10945285;32;20065;-74
2022/05/22 01:11:27;;;;;;;5.25;3.67;;;24.30;67.70;;;;;;10945122;32;20395;-75
2022/05/22 01:17:40;;;;;;;3.97;2.92;;;24.30;67.80;;;;;;10881266;27;20073;-74
2022/05/22 01:23:42;;;;;;;3.85;2.97;;;24.30;68.40;;;;;;10901259;32;20361;-75
2022/05/22 01:29:47;;;;;;;4.93;3.80;;;24.30;68.40;;;;;;10902941;32;20019;-74
2022/05/22 01:35:49;;;;;;;7.03;4.15;;;24.30;68.30;;;;;;10902777;32;20027;-74
2022/05/22 01:41:54;;;;;;;6.62;4.45;;;24.30;68.40;;;;;;10902474;32;20019;-75
2022/05/22 01:47:57;;;;;;;5.82;4.30;;;24.20;68.40;;;;;;10928887;32;20053;-75
2022/05/22 01:54:03;;;;;;;4.18;2.75;;;24.10;68.50;;;;;;11019182;32;20322;-74
2022/05/22 02:00:10;;;;;;;4.85;3.75;;;24.00;68.70;;;;;;11018724;32;20018;-74
2022/05/22 02:06:16;;;;;;;4.97;3.37;;;24.00;69.30;;;;;;11005678;32;20041;-75
2022/05/22 02:12:18;;;;;;;5.68;4.20;;;24.00;69.40;;;;;;11014193;32;20027;-74
2022/05/22 02:18:20;;;;;;;5.62;3.85;;;23.90;69.40;;;;;;10966940;32;20048;-74
2022/05/22 02:24:23;;;;;;;5.00;3.95;;;23.90;69.60;;;;;;10979996;32;20022;-73
2022/05/22 02:30:36;;;;;;;7.32;5.05;;;23.80;69.60;;;;;;10963028;32;20018;-74
2022/05/22 02:36:38;;;;;;;7.50;3.75;;;23.80;70.10;;;;;;10979711;32;20065;-74
2022/05/22 02:42:43;;;;;;;4.78;3.50;;;23.80;70.00;;;;;;10979761;32;20026;-73
2022/05/22 02:48:48;;;;;;;7.13;3.47;;;23.70;70.20;;;;;;10966444;32;20037;-73
2022/05/22 02:54:51;;;;;;;6.78;4.65;;;23.70;70.00;;;;;;10979498;32;20409;-73
2022/05/22 03:00:53;;;;;;;5.85;3.78;;;23.70;70.10;;;;;;10966040;32;20022;-73
2022/05/22 03:06:56;;;;;;;5.28;3.78;;;23.60;70.10;;;;;;10977183;32;20354;-74
2022/05/22 03:12:59;;;;;;;5.20;4.03;;;23.60;70.50;;;;;;10981570;32;20026;-74
2022/05/22 03:19:03;;;;;;;5.55;3.53;;;23.60;70.50;;;;;;10986728;32;20429;-73
2022/05/22 03:25:06;;;;;;;6.37;4.93;;;23.60;70.60;;;;;;10986347;32;20034;-73
2022/05/22 03:31:08;;;;;;;6.78;4.47;;;23.60;70.60;;;;;;10986313;32;20038;-73
2022/05/22 03:37:11;;;;;;;7.50;4.80;;;23.50;70.90;;;;;;10986001;32;20018;-74
2022/05/22 03:43:15;;;;;;;6.30;4.80;;;23.40;71.20;;;;;;10985689;32;20045;-73
2022/05/22 03:49:17;;;;;;;5.82;3.60;;;23.40;71.00;;;;;;10985652;32;20026;-73
2022/05/22 03:55:20;;;;;;;5.80;4.72;;;23.30;71.50;;;;;;10985426;32;20383;-74
2022/05/22 04:01:23;;;;;;;8.40;4.05;;;23.30;71.70;;;;;;10985166;32;20011;-73
2022/05/22 04:07:26;;;;;;;5.60;4.22;;;23.30;71.90;;;;;;10984889;32;20314;-73
2022/05/22 04:13:29;;;;;;;5.57;4.03;;;23.30;71.80;;;;;;10981701;32;20429;-73
2022/05/22 04:19:31;;;;;;;9.05;4.93;;;23.30;72.00;;;;;;10984540;32;20342;-74
2022/05/22 04:25:34;;;;;;;5.70;4.12;;;23.30;71.90;;;;;;10983319;32;20041;-74
2022/05/22 04:31:39;;;;;;;5.95;4.18;;;23.30;71.90;;;;;;10983956;32;20100;-73
2022/05/22 04:37:42;;;;;;;6.78;3.60;;;23.30;72.20;;;;;;10982874;32;20397;-74
2022/05/22 04:43:48;;;;;;;6.37;4.60;;;23.30;71.80;;;;;;10983617;32;20045;-73
2022/05/22 04:49:51;;;;;;;7.03;4.07;;;23.40;71.90;;;;;;10983284;32;20037;-73
2022/05/22 04:55:54;;;;;;;4.62;3.50;;;23.30;72.30;;;;;;10983074;32;20284;-74
2022/05/22 05:01:57;;;;;;;8.32;4.70;;;23.30;72.50;;;;;;10981575;32;20334;-74
2022/05/22 05:08:04;;;;;;;6.85;4.60;;;23.40;72.30;;;;;;10978410;32;20057;-74
2022/05/22 05:14:08;;;;;;;11.68;4.97;;;23.40;72.40;;;;;;11006694;32;20030;-74
2022/05/22 05:20:16;;;;;;;7.35;4.30;;;23.40;72.00;;;;;;10982371;32;20387;-73
2022/05/22 05:26:39;;;;;;;7.10;4.30;;;23.50;72.10;;;;;;10983401;32;20014;-73
2022/05/22 05:32:42;;;;;;;4.28;3.55;;;23.60;72.10;;;;;;10981749;32;20022;-73
2022/05/22 05:38:45;;;;;;;7.00;5.43;;;23.70;71.80;;;;;;10978847;32;20378;-73
2022/05/22 05:44:56;;;;;;;6.22;3.87;;;23.80;71.60;;;;;;10981560;32;20399;-73
2022/05/22 05:50:59;;;;;;;6.63;4.30;;;23.90;71.30;;;;;;10981180;32;20041;-73
2022/05/22 05:57:03;;;;;;;7.43;3.80;;;24.00;71.10;;;;;;10980976;32;20023;-73
2022/05/22 06:03:07;;;;;;;5.40;3.67;;;24.20;70.90;;;;;;10979960;32;20080;-73
2022/05/22 06:09:11;;;;;;;6.78;4.07;;;24.20;70.70;;;;;;10995449;32;20029;-73
2022/05/22 06:15:14;;;;;;;6.97;4.82;;;24.30;70.60;;;;;;11018630;32;20026;-73
2022/05/22 06:21:21;;;;;;;6.95;4.95;;;24.50;70.30;;;;;;10990383;32;20030;-72
2022/05/22 06:27:25;;;;;;;5.85;4.12;;;24.60;70.30;;;;;;10979988;32;20072;-74
2022/05/22 06:33:29;;;;;;;6.60;4.53;;;24.60;70.10;;;;;;10979889;32;20053;-74
2022/05/22 06:39:51;;;;;;;6.35;3.80;;;24.70;69.90;;;;;;10966576;32;20050;-73
2022/05/22 06:45:53;;;;;;;8.27;4.93;;;24.60;69.80;;;;;;10979517;32;20053;-73
2022/05/22 06:52:02;;;;;;;6.03;3.90;;;24.70;70.00;;;;;;10978960;32;20030;-72
2022/05/22 06:58:08;;;;;;;6.53;4.45;;;24.80;69.70;;;;;;10966095;32;20394;-72
2022/05/22 07:04:11;;;;;;;5.72;3.85;;;25.00;69.40;;;;;;10979780;32;20011;-72
2022/05/22 07:10:15;;;;;;;3.67;2.87;;;25.20;69.20;;;;;;10979601;32;20041;-74
2022/05/22 07:16:21;;;;;;;8.75;4.20;;;25.30;68.80;;;;;;10966239;32;20022;-73
2022/05/22 07:22:24;;;;;;;5.97;2.70;;;25.40;68.30;;;;;;11006061;32;20361;-73
2022/05/22 07:28:26;;;;;;;3.65;2.42;;;25.60;68.10;;;;;;11014637;32;20023;-73
2022/05/22 07:34:29;;;;;;;7.70;3.33;;;25.70;67.20;;;;;;10976097;32;20054;-76
2022/05/22 07:40:33;;;;;;;3.67;2.42;;;25.80;66.50;;;;;;11017777;32;20398;-73
2022/05/22 07:46:42;;;;;;;9.10;3.97;;;26.00;66.30;;;;;;11017668;32;20022;-73
2022/05/22 07:52:45;;;;;;;6.37;3.33;;;26.10;65.20;;;;;;11013485;32;20068;-74
2022/05/22 07:58:50;;;;;;;4.87;2.75;;;26.10;64.80;;;;;;11018961;32;20018;-73
2022/05/22 08:04:53;;;;;;;3.70;3.00;;;26.30;64.00;;;;;;11013382;32;20027;-72
2022/05/22 08:11:00;;;;;;;4.60;3.35;;;26.30;63.60;;;;;;10985839;32;20030;-72
2022/05/22 08:17:03;;;;;;;6.12;3.85;;;26.40;63.40;;;;;;10971943;32;20335;-73
2022/05/22 08:23:19;;;;;;;16.08;3.92;;;26.50;63.20;;;;;;10985910;32;20073;-72
2022/05/22 08:29:22;;;;;;;6.23;3.83;;;26.60;62.90;;;;;;10983018;32;20050;-71
2022/05/22 08:35:33;;;;;;;7.15;4.90;;;26.80;62.50;;;;;;10969469;32;20018;-72
2022/05/22 08:41:49;;;;;;;6.62;3.60;;;26.80;62.80;;;;;;10984392;32;20436;-74
2022/05/22 08:48:08;;;;;;;6.15;3.62;;;26.80;62.40;;;;;;10984760;32;20041;-72
2022/05/22 08:54:22;;;;;;;7.60;5.00;;;26.80;62.20;;;;;;10984278;32;20053;-73
2022/05/22 09:00:43;;;;;;;4.70;3.28;;;27.00;61.70;;;;;;10982674;32;20433;-73
2022/05/22 09:06:58;;;;;;;5.62;3.45;;;27.10;61.50;;;;;;10969882;32;20041;-72
2022/05/22 09:13:15;;;;;;;5.28;3.40;;;27.30;61.20;;;;;;10733150;27;12192894;-74
2022/05/22 09:19:40;;;;;;;4.82;3.55;;;27.40;60.60;;;;;;10939290;32;20108;-73
2022/05/22 09:26:06;;;;;;;7.32;3.95;;;27.50;60.50;;;;;;10942288;32;20406;-73
2022/05/22 09:32:53;;;;;;;5.30;3.85;;;27.70;60.10;;;;;;10937486;32;20027;-73
2022/05/22 09:39:25;;;;;;;4.75;3.60;;;27.90;59.70;;;;;;10830105;32;20058;-72
2022/05/22 09:45:48;;;;;;;5.35;3.45;;;28.00;59.00;;;;;;10865263;32;20067;-74
2022/05/22 09:52:13;;;;;;;6.97;3.65;;;28.10;58.70;;;;;;10860382;32;20027;-74
2022/05/22 09:58:39;;;;;;;7.00;3.67;;;28.20;58.30;;;;;;10862264;32;20051;-75
2022/05/22 10:05:07;;;;;;;5.53;3.90;;;28.30;58.00;;;;;;10863783;32;20042;-74
2022/05/22 10:11:12;;;;;;;9.68;5.35;;;28.60;57.70;;;;;;10897860;32;20057;-75
2022/05/22 10:17:42;;;;;;;6.37;4.18;;;28.80;57.50;;;;;;10980451;32;20390;-75
2022/05/22 10:23:58;;;;;;;5.70;3.75;;;28.80;57.40;;;;;;10980681;32;20049;-74
2022/05/22 10:30:36;;;;;;;5.55;4.32;;;28.90;56.80;;;;;;10980046;32;20014;-76
2022/05/22 10:37:35;;;;;;;5.45;3.60;;;29.10;56.40;;;;;;10980630;32;20022;-73
2022/05/22 10:43:42;;;;;;;7.55;5.07;;;29.40;56.00;;;;;;10976227;32;20026;-72
2022/05/22 10:49:51;;;;;;;9.95;5.12;;;29.60;55.90;;;;;;10980391;32;20025;-73
2022/05/22 10:56:02;;;;;;;7.07;4.50;;;29.70;55.50;;;;;;10967116;32;20018;-73
2022/05/22 11:02:14;;;;;;;5.90;4.12;;;29.80;55.10;;;;;;10980124;32;20019;-74
2022/05/22 11:08:52;;;;;;;10.93;4.87;;;29.80;54.80;;;;;;10980025;32;20080;-74
2022/05/22 11:15:08;;;;;;;4.47;3.53;;;30.00;53.90;;;;;;10978530;32;20026;-73
2022/05/22 11:21:37;;;;;;;5.15;3.60;;;30.30;52.70;;;;;;10978837;32;20057;-76
2022/05/22 11:28:04;;;;;;;9.23;4.70;;;30.40;52.40;;;;;;10977178;32;20026;-73
2022/05/22 11:34:21;;;;;;;4.77;3.63;;;30.20;52.30;;;;;;10981834;32;20066;-75
2022/05/22 11:40:34;;;;;;;11.85;3.40;;;30.40;51.50;;;;;;10986234;32;20375;-75
2022/05/22 11:46:39;;;;;;;5.65;4.10;;;30.80;51.30;;;;;;10984194;32;20023;-77
2022/05/22 11:52:56;;;;;;;6.60;4.25;;;31.10;50.90;;;;;;10985054;32;20023;-75
2022/05/22 11:59:23;;;;;;;6.50;4.12;;;31.20;50.80;;;;;;10985112;32;20027;-76
2022/05/22 12:05:53;;;;;;;7.27;4.10;;;31.50;50.60;;;;;;10984888;32;20300;-73
2022/05/22 12:12:09;;;;;;;5.78;3.40;;;31.50;50.30;;;;;;10985065;32;20401;-74
2022/05/22 12:18:27;;;;;;;6.75;4.78;;;31.10;50.70;;;;;;10984569;32;20023;-74
2022/05/22 12:25:02;;;;;;;6.35;3.80;;;31.00;50.80;;;;;;10984520;32;20426;-74
2022/05/22 12:31:13;;;;;;;7.20;4.95;;;30.60;50.90;;;;;;10984125;32;20026;-74
2022/05/22 12:37:49;;;;;;;4.75;3.65;;;30.50;51.10;;;;;;10982576;32;20058;-74
2022/05/22 12:43:55;;;;;;;5.93;4.22;;;30.40;51.20;;;;;;10969872;32;20018;-75
2022/05/22 12:50:01;;;;;;;4.80;3.72;;;30.30;51.80;;;;;;10983464;32;20046;-74
2022/05/22 12:56:40;;;;;;;4.43;3.37;;;30.70;51.60;;;;;;10980219;32;20053;-75
2022/05/22 13:02:45;;;;;;;6.25;3.90;;;31.10;51.10;;;;;;10829678;32;20035;-75
2022/05/22 13:09:03;;;;;;;9.30;3.97;;;30.90;51.20;;;;;;10829269;32;20077;-75
2022/05/22 13:15:05;;;;;;;6.18;3.22;;;30.30;51.90;;;;;;10828287;32;20344;-75
2022/05/22 13:21:07;;;;;;;4.62;3.40;;;29.80;53.00;;;;;;10826005;32;20379;-74
2022/05/22 13:27:23;;;;;;;4.07;3.28;;;29.60;53.70;;;;;;10828253;32;20020;-73
2022/05/22 13:33:26;;;;;;;4.53;3.15;;;29.30;54.30;;;;;;10855877;32;20061;-73
2022/05/22 13:40:11;;;;;;;6.55;3.72;;;29.00;54.90;;;;;;10981630;32;20018;-73
2022/05/22 13:47:34;;;;;;;6.32;3.80;;;28.90;55.20;;;;;;10979971;32;20363;-74
2022/05/22 13:53:52;;;;;;;6.97;2.65;;;28.70;55.70;;;;;;10965018;32;20353;-74
2022/05/22 14:00:20;;;;;;;4.00;2.62;;;28.60;55.80;;;;;;10981143;32;20022;-74
2022/05/22 14:06:29;;;;;;;3.87;2.50;;;28.50;56.00;;;;;;10939170;32;20031;-73
2022/05/22 14:12:45;;;;;;;4.05;3.05;;;28.50;56.20;;;;;;10929666;32;20049;-73
2022/05/22 14:19:06;;;;;;;4.65;2.95;;;28.50;56.40;;;;;;10951435;32;20019;-74
2022/05/22 14:25:10;;;;;;;5.57;3.37;;;28.60;56.40;;;;;;10981157;32;20046;-73
2022/05/22 14:31:21;;;;;;;5.05;3.47;;;28.80;56.30;;;;;;10980308;32;20027;-73
2022/05/22 14:37:23;;;;;;;5.05;3.42;;;28.90;56.10;;;;;;10980106;32;20026;-74
2022/05/22 14:43:32;;;;;;;7.55;3.95;;;28.90;56.20;;;;;;10979490;32;20031;-74
2022/05/22 14:49:48;;;;;;;5.18;3.60;;;29.00;55.90;;;;;;10943237;32;20028;-73
2022/05/22 14:55:53;;;;;;;4.87;3.30;;;29.20;55.70;;;;;;10942329;32;20035;-73
2022/05/22 15:01:55;;;;;;;4.57;3.58;;;29.40;55.50;;;;;;10942739;32;20027;-73
2022/05/22 15:08:03;;;;;;;4.37;2.92;;;29.50;55.40;;;;;;10941168;32;20045;-74
2022/05/22 15:14:18;;;;;;;4.82;3.12;;;29.60;55.40;;;;;;10936014;32;20309;-73
2022/05/22 15:20:28;;;;;;;5.03;3.40;;;29.60;55.30;;;;;;10948484;32;20347;-73
2022/05/22 15:26:31;;;;;;;5.87;3.22;;;29.70;55.20;;;;;;10949388;32;20023;-74
2022/05/22 15:32:42;;;;;;;7.97;4.07;;;29.50;55.30;;;;;;10946780;32;20070;-73
2022/05/22 15:38:59;;;;;;;4.10;3.12;;;29.40;55.60;;;;;;10948804;32;20068;-73
2022/05/22 15:45:10;;;;;;;8.27;4.10;;;29.40;55.70;;;;;;10948798;32;20045;-73
2022/05/22 15:51:16;;;;;;;7.05;3.83;;;29.30;55.60;;;;;;10947353;32;20023;-73
2022/05/22 15:57:18;;;;;;;4.95;3.83;;;29.30;55.80;;;;;;10947765;32;20057;-74
2022/05/22 16:03:20;;;;;;;3.30;2.75;;;29.20;55.80;;;;;;10946567;32;20038;-74
2022/05/22 16:09:25;;;;;;;9.52;3.80;;;29.10;55.80;;;;;;10947954;32;20050;-73
2022/05/22 16:15:28;;;;;;;4.62;3.10;;;29.20;55.80;;;;;;10947387;32;20063;-73
2022/05/22 16:21:34;;;;;;;;;;;29.20;55.90;;;;;;10930546;32;20304;-73
2022/05/22 16:27:37;;;;;;;5.62;4.12;;;29.20;56.00;;;;;;10946485;32;20317;-73
2022/05/22 16:33:38;;;;;;;3.65;3.03;;;29.20;56.20;;;;;;10942856;32;20099;-73
2022/05/22 16:39:41;;;;;;;5.68;3.42;;;29.20;56.20;;;;;;10946393;32;20027;-73
2022/05/22 16:45:44;;;;;;;4.37;3.25;;;29.20;56.40;;;;;;10946558;32;20037;-73
2022/05/22 16:58:18;;;;;;;6.05;3.53;;;29.10;56.70;;;;;;10946179;32;20057;-73
2022/05/22 17:04:21;;;;;;;7.28;4.50;;;29.30;56.70;;;;;;10945794;32;20041;-73
2022/05/22 17:10:23;;;;;;;8.57;5.28;;;29.30;56.90;;;;;;10942420;32;20019;-73
2022/05/22 17:16:25;;;;;;;6.00;3.70;;;29.30;57.30;;;;;;10993170;26;20422;-74
2022/05/22 17:22:32;;;;;;;6.03;4.20;;;29.20;57.40;;;;;;11007266;32;20058;-74
2022/05/22 17:28:36;;;;;;;4.53;3.45;;;29.20;58.00;;;;;;11002787;32;20049;-74
2022/05/22 17:34:39;;;;;;;6.22;4.12;;;29.00;58.30;;;;;;11006597;32;20049;-73
2022/05/22 17:40:49;;;;;;;7.00;3.97;;;28.90;58.60;;;;;;11019194;32;20022;-75
2022/05/22 17:46:51;;;;;;;5.85;3.45;;;28.80;58.70;;;;;;11015777;32;20428;-75
2022/05/22 17:52:55;;;;;;;6.35;3.85;;;28.90;58.40;;;;;;11019752;32;20310;-74
2022/05/22 17:58:57;;;;;;;5.60;3.67;;;28.70;58.60;;;;;;11018662;32;20018;-75
2022/05/22 18:04:59;;;;;;;10.13;3.72;;;28.40;59.00;;;;;;11019110;32;20048;-75
2022/05/22 18:17:31;;;;;;;7.37;3.35;;;28.10;59.50;;;;;;11018346;32;20026;-74
2022/05/22 18:23:57;;;;;;;5.50;3.33;;;28.00;59.70;;;;;;11016065;32;20026;-75
2022/05/22 18:29:59;;;;;;;4.20;2.58;;;27.80;59.90;;;;;;11018274;32;20022;-75
2022/05/22 18:36:02;;;;;;;7.12;2.67;;;27.80;59.90;;;;;;11018114;32;20394;-75
2022/05/22 18:42:11;;;;;;;3.47;2.30;;;27.70;60.30;;;;;;11001454;32;20046;-75
2022/05/22 18:48:35;;;;;;;7.07;3.25;;;27.60;60.50;;;;;;10979669;32;20026;-75
2022/05/22 18:54:37;;;;;;;4.10;2.53;;;27.40;60.60;;;;;;10979388;32;20031;-75
2022/05/22 19:00:49;;;;;;;3.97;2.80;;;27.30;60.80;;;;;;10979562;32;20041;-74
2022/05/22 19:06:55;;;;;;;4.28;2.08;;;27.30;60.80;;;;;;10979458;32;20026;-75
2022/05/22 19:12:58;;;;;;;7.82;2.12;;;27.20;60.90;;;;;;10979394;32;20305;-74
2022/05/22 19:19:01;;;;;;;2.50;2.30;;;27.10;61.10;;;;;;10977048;32;20031;-74
2022/05/22 19:25:03;;;;;;;3.70;2.70;;;27.10;61.10;;;;;;10979066;32;20026;-74
2022/05/22 19:31:07;;;;;;;3.70;2.33;;;27.00;61.20;;;;;;10965665;32;20195;-74
2022/05/22 19:37:10;;;;;;;6.87;3.12;;;26.90;61.30;;;;;;10975552;32;20049;-74
2022/05/22 19:49:38;;;;;;;3.67;2.65;;;26.90;61.50;;;;;;10978648;32;20417;-74
2022/05/22 20:02:08;;;;;;;5.43;2.72;;;26.80;61.70;;;;;;10982136;32;20023;-74
2022/05/22 20:08:18;;;;;;;3.12;2.67;;;26.70;61.70;;;;;;10985201;32;20045;-75
2022/05/22 20:14:20;;;;;;;6.37;2.83;;;26.70;61.70;;;;;;10984610;32;20366;-74
2022/05/22 20:20:25;;;;;;;4.62;3.17;;;26.60;61.90;;;;;;10984609;32;20030;-72
2022/05/22 20:26:27;;;;;;;3.12;2.53;;;26.50;61.90;;;;;;10981065;32;20049;-73
2022/05/22 20:32:31;;;;;;;5.03;3.30;;;26.50;62.00;;;;;;10984128;32;20395;-73
2022/05/22 20:38:33;;;;;;;2.92;2.28;;;26.50;62.00;;;;;;10982908;32;20060;-73
2022/05/22 20:44:43;;;;;;;9.55;3.12;;;26.40;62.00;;;;;;10983762;32;20045;-73
2022/05/22 20:50:50;;;;;;;;;;;26.30;62.00;;;;;;10983148;32;20027;-73
2022/05/22 20:56:57;;;;;;;3.08;2.47;;;26.30;61.90;;;;;;10967513;32;19926;-73
2022/05/22 21:02:59;;;;;;;5.00;2.87;;;26.40;62.00;;;;;;10969278;32;20176;-73
2022/05/22 21:09:04;;;;;;;5.75;2.25;;;26.30;62.10;;;;;;10982428;32;20338;-72
2022/05/22 21:15:08;;;;;;;6.62;3.40;;;26.30;62.20;;;;;;10980960;32;20026;-73
2022/05/22 21:21:12;;;;;;;4.78;3.05;;;26.30;62.20;;;;;;10982601;32;20069;-73
2022/05/22 21:33:45;;;;;;;6.97;4.12;;;26.20;62.80;;;;;;10980887;32;20327;-73
2022/05/22 21:39:47;;;;;;;8.52;5.03;;;26.10;63.40;;;;;;10982027;32;20319;-74
2022/05/22 21:45:50;;;;;;;7.00;3.60;;;26.00;63.80;;;;;;10981740;32;20011;-73
2022/05/22 21:51:53;;;;;;;11.93;4.18;;;26.10;63.90;;;;;;10981415;32;20061;-74
2022/05/22 21:57:58;;;;;;;6.75;3.62;;;26.00;63.90;;;;;;10968263;32;20026;-74
2022/05/22 22:04:00;;;;;;;8.52;4.30;;;25.90;64.10;;;;;;10968597;32;20334;-74
2022/05/22 22:10:01;;;;;;;4.57;3.25;;;26.00;64.50;;;;;;10968582;32;20007;-74
2022/05/22 22:16:03;;;;;;;4.37;3.15;;;25.90;65.00;;;;;;10980888;32;20041;-74
2022/05/22 22:22:07;;;;;;;5.53;3.65;;;25.90;64.90;;;;;;10977990;32;20363;-74
2022/05/22 22:28:08;;;;;;;6.93;4.25;;;25.80;65.70;;;;;;10980428;32;20064;-74
2022/05/22 22:34:10;;;;;;;5.62;3.75;;;25.90;65.60;;;;;;10980800;32;20042;-74
2022/05/22 22:40:13;;;;;;;12.35;6.07;;;25.80;65.70;;;;;;10981477;32;20010;-73
2022/05/22 22:46:14;;;;;;;7.95;5.70;;;25.70;67.20;;;;;;10980661;32;20037;-74
2022/05/22 22:52:16;;;;;;;4.95;3.95;;;25.60;67.40;;;;;;10980314;32;20014;-74
2022/05/22 22:58:24;;;;;;;6.30;4.87;;;25.70;67.20;;;;;;10980339;32;20018;-75
2022/05/22 23:04:26;;;;;;;6.47;5.30;;;25.60;67.10;;;;;;10979877;32;20007;-75
2022/05/22 23:10:29;;;;;;;10.07;5.45;;;25.60;67.00;;;;;;10979596;32;20572;-75
2022/05/22 23:16:31;;;;;;;9.45;8.10;;;25.50;67.20;;;;;;10966330;32;20033;-74
2022/05/22 23:22:32;;;;;;;14.15;12.13;;;25.40;68.30;;;;;;10979653;32;20041;-72
2022/05/22 23:28:36;;;;;;;9.90;8.02;;;25.30;69.50;;;;;;10980477;32;20337;-74
2022/05/22 23:34:45;;;;;;;11.82;9.32;;;25.30;69.70;;;;;;10987606;32;20060;-73
2022/05/22 23:40:47;;;;;;;12.88;10.85;;;25.30;69.50;;;;;;10987358;32;20359;-73
2022/05/22 23:46:49;;;;;;;10.15;8.48;;;25.20;69.70;;;;;;10987610;32;20047;-73
2022/05/22 23:52:50;;;;;;;9.85;7.03;;;25.20;70.40;;;;;;10986312;32;20046;-75
2022/05/22 23:58:52;;;;;;;10.15;5.62;;;25.10;70.50;;;;;;10985641;32;20018;-75
